Time;durP1;ratioP1;P1;durP2;ratioP2;P2;SDS_P1;SDS_P2;PMS_P1;PMS_P2;Temp;Humidity;BMP_temperature;BMP_pressure;BME280_temperature;BME280_humidity;BME280_pressure;Samples;Min_cycle;Max_cycle;Signal;HPM_P1;HPM_P2
2022/03/05 00:02:10;;;;;;;;;82.67;59.00;;;;;1.77;70.75;99793.81;6313497;20;3653434;-43
2022/03/05 00:04:40;;;;;;;;;71.00;52.67;;;;;1.67;70.62;99789.66;6315770;20;3623320;-42
2022/03/05 00:07:10;;;;;;;;;77.67;56.00;;;;;1.69;70.68;99795.78;6316186;20;2881544;-42
2022/03/05 00:09:38;;;;;;;;;70.00;56.00;;;;;1.60;70.62;99793.31;6310910;20;2500280;-44
2022/03/05 00:12:08;;;;;;;;;74.00;54.67;;;;;1.43;70.77;99794.59;6283712;20;2883732;-44
2022/03/05 00:14:38;;;;;;;;;70.33;51.67;;;;;1.64;70.66;99789.72;6312953;20;2880666;-45
2022/03/05 00:17:08;;;;;;;;;74.00;57.00;;;;;1.56;70.97;99783.75;6312993;20;2871103;-42
2022/03/05 00:19:36;;;;;;;;;72.00;58.00;;;;;1.51;71.36;99786.50;6278512;20;2500228;-42
2022/03/05 00:22:04;;;;;;;;;71.50;58.00;;;;;1.29;72.48;99786.97;6277287;20;2500259;-42
2022/03/05 00:24:33;;;;;;;;;85.00;62.33;;;;;1.27;73.35;99787.91;6281843;20;3642973;-42
2022/03/05 00:27:08;;;;;;;;;83.33;61.33;;;;;1.05;74.18;99788.38;6315178;20;3638770;-44
2022/03/05 00:29:36;;;;;;;;;82.00;63.00;;;;;1.13;73.97;99785.53;6313470;20;2876276;-43
2022/03/05 00:32:07;;;;;;;;;79.33;61.33;;;;;1.04;74.79;99786.63;6281573;20;2889953;-43
2022/03/05 00:34:37;;;;;;;;;88.00;63.33;;;;;1.15;74.69;99782.88;6313189;20;3658544;-43
2022/03/05 00:37:08;;;;;;;;;81.33;62.33;;;;;1.07;75.12;99781.25;6309800;20;3637759;-43
2022/03/05 00:39:38;;;;;;;;;82.33;60.00;;;;;1.24;74.68;99777.41;6313385;20;3643992;-43
2022/03/05 00:42:08;;;;;;;;;84.33;62.00;;;;;1.10;75.07;99775.91;6313339;20;3650216;-42
2022/03/05 00:44:37;;;;;;;;;79.33;60.00;;;;;1.19;75.43;99771.34;6315083;20;2891095;-42
2022/03/05 00:47:08;;;;;;;;;85.67;64.00;;;;;1.03;75.47;99771.69;6314666;20;3644080;-42
2022/03/05 00:49:37;;;;;;;;;85.00;63.00;;;;;0.92;75.74;99773.66;6312544;20;3629458;-43
2022/03/05 00:52:08;;;;;;;;;92.00;66.67;;;;;0.66;77.49;99766.28;6313507;20;3643003;-44
2022/03/05 00:54:37;;;;;;;;;84.33;60.67;;;;;0.71;77.11;99760.88;6311965;20;3650279;-43
2022/03/05 00:57:08;;;;;;;;;75.00;58.00;;;;;1.01;75.96;99767.31;6313920;20;2878427;-44
2022/03/05 00:59:38;;;;;;;;;74.33;55.33;;;;;0.98;75.90;99765.63;6311205;20;2896260;-42
2022/03/05 01:02:09;;;;;;;;;83.00;57.33;;;;;1.03;74.74;99770.81;6313526;20;3649235;-42
2022/03/05 01:04:38;;;;;;;;;76.50;60.50;;;;;1.05;74.60;99769.88;6312935;20;2878388;-42
2022/03/05 01:07:07;;;;;;;;;66.00;53.00;;;;;1.03;74.28;99768.16;6281963;20;2855471;-42
2022/03/05 01:09:35;;;;;;;;;74.50;54.00;;;;;0.91;74.32;99769.28;6275834;20;2499231;-42
2022/03/05 01:12:06;;;;;;;;;68.67;47.00;;;;;0.50;74.86;99765.72;6281424;20;3629460;-43
2022/03/05 01:14:34;;;;;;;;;69.00;53.00;;;;;0.82;74.30;99770.34;6308808;20;2492971;-43
2022/03/05 01:17:03;;;;;;;;;63.00;48.00;;;;;0.93;73.13;99767.47;6277314;20;2855484;-43
2022/03/05 01:19:32;;;;;;;;;71.50;51.50;;;;;1.02;72.38;99767.28;6279724;20;2876350;-42
2022/03/05 01:22:00;;;;;;;;;61.00;45.67;;;;;0.93;72.42;99772.78;6282477;20;3605461;-43
2022/03/05 01:24:28;;;;;;;;;67.50;49.00;;;;;0.95;71.83;99770.97;6278474;20;2508627;-43
2022/03/05 01:26:57;;;;;;;;;71.50;52.00;;;;;0.81;72.28;99767.72;6281333;20;2880654;-42
2022/03/05 01:29:25;;;;;;;;;67.00;45.50;;;;;0.72;72.62;99771.44;6274932;20;2486765;-43
2022/03/05 01:31:55;;;;;;;;;70.33;50.67;;;;;0.46;73.94;99766.66;6280168;20;2880507;-45
2022/03/05 01:34:26;;;;;;;;;65.50;49.50;;;;;0.63;72.85;99772.50;6311610;20;2876301;-46
2022/03/05 01:36:55;;;;;;;;;66.00;49.50;;;;;0.84;71.78;99768.56;6278953;20;2880473;-43
2022/03/05 01:39:24;;;;;;;;;65.00;49.50;;;;;0.91;71.90;99768.41;6280625;20;2864986;-43
2022/03/05 01:41:55;;;;;;;;;73.00;49.50;;;;;0.35;72.89;99773.94;6279779;20;2891962;-43
2022/03/05 01:44:25;;;;;;;;;66.00;47.50;;;;;0.13;74.71;99762.88;6280750;20;2871081;-45
2022/03/05 01:46:55;;;;;;;;;79.67;54.33;;;;;-0.20;75.04;99769.63;6281321;20;2881487;-46
2022/03/05 01:49:23;;;;;;;;;76.50;59.50;;;;;-0.06;75.07;99763.19;6308366;20;2499297;-45
2022/03/05 01:51:51;;;;;;;;;67.50;55.00;;;;;-0.34;75.65;99767.19;6278922;20;2865907;-43
2022/03/05 01:54:19;;;;;;;;;69.00;55.50;;;;;-0.84;77.16;99764.44;6277717;20;2500297;-41
2022/03/05 01:56:49;;;;;;;;;75.50;53.00;;;;;-0.41;76.44;99766.41;6282011;20;2877331;-43
2022/03/05 01:59:17;;;;;;;;;72.00;58.00;;;;;-0.37;76.16;99775.16;6273851;20;2500324;-43
2022/03/05 02:01:46;;;;;;;;;67.00;50.50;;;;;0.26;74.70;99780.22;6281316;20;2871110;-45
2022/03/05 02:04:14;;;;;;;;;69.00;52.00;;;;;-0.08;74.49;99769.38;6274491;20;2491950;-43
2022/03/05 02:06:44;;;;;;;;;71.00;55.00;;;;;-0.06;74.74;99778.16;6280455;20;2879516;-43
2022/03/05 02:09:12;;;;;;;;;71.50;56.00;;;;;-0.02;74.09;99772.81;6311307;20;2873237;-43
2022/03/05 02:11:41;;;;;;;;;79.00;58.50;;;;;-0.40;75.15;99773.44;6279283;20;2893010;-44
2022/03/05 02:14:15;;;;;;;;;77.00;56.00;;;;;-0.43;76.89;99773.47;6278208;20;2893110;-44
2022/03/05 02:16:44;;;;;;;;;72.00;56.00;;;;;-0.54;76.17;99775.41;6303901;20;2500253;-45
2022/03/05 02:19:12;;;;;;;;;79.00;59.50;;;;;-0.38;75.65;99771.66;6274111;20;2500400;-45
2022/03/05 02:21:47;;;;;;;;;88.00;62.00;;;;;-0.59;76.27;99777.25;6290399;20;3655488;-44
2022/03/05 02:24:31;;;;;;;;;77.50;57.00;;;;;-0.30;75.59;99782.94;6309296;20;2895060;-43
2022/03/05 02:27:05;;;;;;;;;67.00;47.33;;;;;-0.14;75.30;99774.78;6279290;20;2874319;-43
2022/03/05 02:29:37;;;;;;;;;59.00;45.50;;;;;0.05;74.39;99775.34;6308275;20;2863830;-43
2022/03/05 02:32:06;;;;;;;;;65.00;46.00;;;;;0.10;73.96;99779.63;6279158;20;2874207;-45
2022/03/05 02:34:35;;;;;;;;;54.00;44.67;;;;;0.22;73.80;99774.16;6279730;20;2871101;-43
2022/03/05 02:37:04;;;;;;;;;58.00;49.00;;;;;0.24;73.30;99775.88;6313343;20;2500250;-42
2022/03/05 02:39:32;;;;;;;;;52.50;43.00;;;;;0.17;73.60;99778.63;6280109;20;2508610;-43
2022/03/05 02:42:01;;;;;;;;;64.50;47.50;;;;;0.27;73.83;99779.34;6284062;20;2866899;-43
2022/03/05 02:44:30;;;;;;;;;64.50;47.50;;;;;0.32;73.67;99779.28;6286613;20;2850240;-44
2022/03/05 02:46:58;;;;;;;;;72.50;50.00;;;;;0.35;73.90;99779.22;6278368;20;2500233;-43
2022/03/05 02:49:27;;;;;;;;;69.00;52.50;;;;;0.26;74.02;99782.00;6284411;20;2885668;-47
2022/03/05 02:51:57;;;;;;;;;61.50;49.00;;;;;0.31;74.49;99780.16;6280405;20;2495137;-44
2022/03/05 02:54:25;;;;;;;;;56.00;48.00;;;;;0.24;74.11;99784.69;6281779;20;2508733;-43
2022/03/05 02:56:53;;;;;;;;;65.00;49.50;;;;;0.46;73.84;99786.94;6280726;20;2503397;-44
2022/03/05 02:59:25;;;;;;;;;75.50;59.50;;;;;0.22;74.21;99781.19;6282227;20;2878400;-44
2022/03/05 03:01:53;;;;;;;;;70.00;54.50;;;;;0.41;73.91;99779.94;6284172;20;2871138;-43
2022/03/05 03:04:22;;;;;;;;;64.50;48.50;;;;;0.44;74.26;99777.25;6281441;20;2497183;-44
2022/03/05 03:06:50;;;;;;;;;66.50;50.00;;;;;0.41;73.61;99779.09;6284962;20;2858580;-43
2022/03/05 03:09:19;;;;;;;;;71.00;52.00;;;;;0.44;73.68;99784.31;6285197;20;2880442;-44
2022/03/05 03:11:47;;;;;;;;;69.00;53.00;;;;;0.33;73.95;99778.34;6280763;20;2498166;-42
2022/03/05 03:14:16;;;;;;;;;78.00;56.67;;;;;0.48;73.93;99772.78;6283789;20;2900697;-43
2022/03/05 03:16:46;;;;;;;;;82.00;57.67;;;;;0.36;73.94;99778.31;6313907;20;2891019;-44
2022/03/05 03:19:15;;;;;;;;;80.33;57.33;;;;;0.42;74.17;99780.81;6314642;20;2904567;-43
2022/03/05 03:21:45;;;;;;;;;72.67;53.00;;;;;0.05;74.94;99778.84;6314637;20;2894096;-43
2022/03/05 03:24:15;;;;;;;;;76.67;54.33;;;;;0.39;73.87;99783.50;6315793;20;2888791;-46
2022/03/05 03:26:45;;;;;;;;;65.50;52.00;;;;;0.38;74.06;99784.44;6316715;20;2864902;-44
2022/03/05 03:29:13;;;;;;;;;67.00;53.00;;;;;0.26;74.41;99784.63;6276742;20;2500258;-45
2022/03/05 03:31:43;;;;;;;;;81.67;58.67;;;;;0.03;75.92;99788.56;6285714;20;2900295;-43
2022/03/05 03:34:12;;;;;;;;;81.67;58.00;;;;;0.10;75.95;99778.75;6312253;20;3651321;-43
2022/03/05 03:36:42;;;;;;;;;74.50;55.50;;;;;0.29;75.97;99782.84;6312891;20;2873190;-43
2022/03/05 03:39:11;;;;;;;;;64.67;45.33;;;;;0.53;75.31;99778.00;6310930;20;3633550;-43
2022/03/05 03:41:39;;;;;;;;;72.50;57.00;;;;;0.19;75.78;99782.13;6312036;20;2500274;-46
2022/03/05 03:44:10;;;;;;;;;76.50;57.00;;;;;0.57;74.71;99791.09;6282899;20;2878370;-43
2022/03/05 03:46:39;;;;;;;;;74.00;52.50;;;;;0.52;74.74;99785.03;6284175;20;2888807;-44
2022/03/05 03:49:09;;;;;;;;;77.00;52.67;;;;;0.35;75.38;99789.78;6283086;20;2893087;-46
2022/03/05 03:51:37;;;;;;;;;74.50;57.00;;;;;0.04;76.44;99789.44;6315932;20;2884710;-47
2022/03/05 03:54:06;;;;;;;;;69.00;53.50;;;;;0.39;75.96;99786.16;6280872;20;2860666;-44
2022/03/05 03:56:35;;;;;;;;;69.00;53.00;;;;;0.39;74.84;99786.16;6282067;20;2877426;-46
2022/03/05 03:59:03;;;;;;;;;62.50;48.00;;;;;-0.03;75.54;99786.03;6279878;20;2500390;-45
2022/03/05 04:01:31;;;;;;;;;75.00;54.00;;;;;0.41;74.32;99785.22;6274762;20;2491968;-44
2022/03/05 04:04:00;;;;;;;;;72.50;55.50;;;;;0.11;75.41;99786.66;6279938;20;2498174;-43
2022/03/05 04:08:41;;;;;;;;;58.50;44.00;;;;;0.34;75.16;99788.00;6282006;20;2874257;-44
2022/03/05 04:09:16;;;;;;;;;65.50;52.00;;;;;0.12;75.44;99793.69;6279474;20;2508722;-45
2022/03/05 04:11:44;;;;;;;;;65.00;51.00;;;;;0.34;74.55;99788.00;6278764;20;2497136;-44
2022/03/05 04:14:14;;;;;;;;;74.67;54.67;;;;;0.29;75.24;99787.22;6284265;20;2894085;-44
2022/03/05 04:16:42;;;;;;;;;73.50;50.50;;;;;0.27;74.89;99789.03;6313702;20;2903421;-42
2022/03/05 04:19:10;;;;;;;;;71.50;54.50;;;;;0.16;75.30;99795.38;6278692;20;2475284;-43
2022/03/05 04:21:40;;;;;;;;;63.33;41.67;;;;;0.35;75.08;99789.78;6282120;20;3628364;-44
2022/03/05 04:24:09;;;;;;;;;62.00;49.50;;;;;0.48;74.46;99796.56;6310800;20;2860700;-43
2022/03/05 04:26:36;;;;;;;;;68.50;53.50;;;;;0.10;75.65;99795.47;6278319;20;2496174;-43
2022/03/05 04:29:05;;;;;;;;;61.50;50.00;;;;;0.27;75.58;99803.13;6279969;20;2500257;-46
2022/03/05 04:31:34;;;;;;;;;67.33;51.00;;;;;0.14;75.68;99797.16;6282321;20;3615874;-43
2022/03/05 04:34:03;;;;;;;;;68.00;49.33;;;;;0.55;74.88;99807.88;6282658;20;2877361;-43
2022/03/05 04:36:32;;;;;;;;;68.00;47.00;;;;;0.59;73.69;99805.16;6312889;20;2877480;-43
2022/03/05 04:39:00;;;;;;;;;71.50;50.00;;;;;0.62;73.78;99813.00;6274008;20;2495184;-44
2022/03/05 04:41:28;;;;;;;;;68.00;52.00;;;;;0.70;73.54;99806.72;6278863;20;2492977;-44
2022/03/05 04:43:56;;;;;;;;;66.50;49.50;;;;;0.79;72.55;99809.16;6277742;20;2483582;-43
2022/03/05 04:46:24;;;;;;;;;68.50;51.00;;;;;0.50;74.15;99809.72;6278643;20;2494070;-43
2022/03/05 04:48:53;;;;;;;;;57.00;46.33;;;;;0.63;73.06;99809.50;6280528;20;3581527;-44
2022/03/05 04:51:21;;;;;;;;;68.00;50.50;;;;;0.69;71.99;99805.00;6280867;20;2489936;-44
2022/03/05 04:53:50;;;;;;;;;65.50;51.00;;;;;0.77;72.39;99813.63;6283357;20;2871074;-43
2022/03/05 04:56:18;;;;;;;;;67.50;45.00;;;;;0.99;71.67;99819.34;6278388;20;2498177;-43
2022/03/05 04:58:47;;;;;;;;;66.00;45.50;;;;;0.98;71.17;99823.78;6280768;20;2870090;-44
2022/03/05 05:01:15;;;;;;;;;63.00;47.50;;;;;0.72;71.79;99823.41;6279558;20;2495067;-43
2022/03/05 05:03:43;;;;;;;;;64.00;47.00;;;;;0.75;72.64;99810.16;6278099;20;2472244;-43
2022/03/05 05:06:13;;;;;;;;;73.00;50.00;;;;;0.50;73.08;99809.72;6282103;20;2884686;-44
2022/03/05 05:08:43;;;;;;;;;62.50;46.00;;;;;0.84;72.05;99815.22;6310964;20;2861760;-44
2022/03/05 05:11:12;;;;;;;;;71.00;52.50;;;;;0.71;71.97;99813.72;6283486;20;2878364;-44
2022/03/05 05:13:41;;;;;;;;;72.00;55.00;;;;;1.02;71.05;99824.56;6281387;20;2885674;-44
2022/03/05 05:16:11;;;;;;;;;69.50;53.50;;;;;0.87;71.65;99826.63;6277829;20;2865865;-43
2022/03/05 05:18:39;;;;;;;;;68.50;54.00;;;;;0.84;71.61;99832.00;6275703;20;2497145;-44
2022/03/05 05:21:09;;;;;;;;;1.00;1.00;;;;;0.85;72.02;99824.91;6316253;20;2720062;-44
2022/03/05 05:23:38;;;;;;;;;62.50;42.50;;;;;0.60;72.86;99833.28;6314090;20;2872128;-44
2022/03/05 05:26:07;;;;;;;;;63.00;51.50;;;;;1.00;71.68;99829.91;6282683;20;2862742;-45
2022/03/05 05:28:35;;;;;;;;;63.50;52.50;;;;;0.91;72.23;99835.38;6282527;20;2864873;-44
2022/03/05 05:31:03;;;;;;;;;77.00;55.50;;;;;0.77;72.28;99835.63;6278147;20;2493018;-46
2022/03/05 05:33:32;;;;;;;;;71.00;51.00;;;;;0.91;72.08;99832.72;6281618;20;2702382;-44
2022/03/05 05:36:01;;;;;;;;;71.50;55.50;;;;;0.84;71.60;99837.28;6309495;20;2866954;-45
2022/03/05 05:38:31;;;;;;;;;69.00;52.67;;;;;0.87;71.88;99833.69;6282596;20;2888854;-45
2022/03/05 05:40:59;;;;;;;;;70.50;52.50;;;;;1.00;70.62;99843.13;6311936;20;2874237;-44
2022/03/05 05:43:28;;;;;;;;;64.00;52.00;;;;;1.00;70.65;99840.47;6281255;20;2862740;-44
2022/03/05 05:45:57;;;;;;;;;35.33;29.00;;;;;1.19;69.69;99846.25;6278157;20;3580546;-44
2022/03/05 05:48:46;;;;;;;;;75.33;51.00;;;;;1.27;69.89;99846.09;6310670;20;3644027;-45
2022/03/05 05:51:16;;;;;;;;;68.50;50.00;;;;;1.45;69.38;99845.69;6312469;20;2872148;-44
2022/03/05 05:53:44;;;;;;;;;62.50;48.50;;;;;1.62;68.69;99855.03;6279766;20;2875294;-46
2022/03/05 05:56:12;;;;;;;;;72.00;56.50;;;;;1.19;70.38;99848.03;6276573;20;2500262;-44
2022/03/05 05:58:41;;;;;;;;;77.50;58.00;;;;;1.23;70.18;99849.69;6276344;20;2882577;-44
2022/03/05 06:01:11;;;;;;;;;80.33;62.67;;;;;1.38;69.51;99851.16;6280350;20;2883798;-44
2022/03/05 06:03:41;;;;;;;;;70.67;53.00;;;;;1.12;70.62;99851.69;6312079;20;2874368;-45
2022/03/05 06:06:09;;;;;;;;;61.00;48.00;;;;;1.15;71.04;99851.63;6308077;20;2506517;-45
2022/03/05 06:08:39;;;;;;;;;71.33;55.67;;;;;1.24;70.73;99862.03;6278725;20;2881637;-44
2022/03/05 06:11:09;;;;;;;;;75.33;58.33;;;;;1.58;69.23;99861.28;6318284;20;2878490;-44
2022/03/05 06:13:39;;;;;;;;;84.33;62.00;;;;;1.66;68.60;99861.97;6318250;20;3659603;-44
2022/03/05 06:16:09;;;;;;;;;70.33;53.00;;;;;1.81;68.54;99866.06;6317299;20;2878766;-43
2022/03/05 06:18:39;;;;;;;;;78.00;60.00;;;;;1.68;67.92;99865.47;6315044;20;2889833;-45
2022/03/05 06:21:09;;;;;;;;;80.33;59.67;;;;;1.85;68.26;99868.63;6315844;20;2883654;-44
2022/03/05 06:23:38;;;;;;;;;77.67;58.00;;;;;2.25;67.08;99872.09;6317188;20;3637779;-43
2022/03/05 06:26:08;;;;;;;;;69.00;52.00;;;;;2.29;66.03;99872.00;6315708;20;2877520;-44
2022/03/05 06:28:36;;;;;;;;;63.00;49.00;;;;;2.38;65.45;99874.38;6313154;20;2489897;-46
2022/03/05 06:31:06;;;;;;;;;73.67;51.00;;;;;2.31;65.62;99874.59;6283926;20;2887880;-44
2022/03/05 06:33:36;;;;;;;;;74.33;60.00;;;;;2.22;66.32;99875.69;6316928;20;2876857;-43
2022/03/05 06:36:06;;;;;;;;;85.00;63.00;;;;;2.45;64.85;99875.13;6316423;20;3667971;-44
2022/03/05 06:38:35;;;;;;;;;80.67;58.00;;;;;2.55;65.19;99873.09;6314539;20;3647139;-46
2022/03/05 06:41:04;;;;;;;;;72.50;56.50;;;;;2.28;66.22;99872.88;6317829;20;2883739;-43
2022/03/05 06:43:34;;;;;;;;;49.00;40.00;;;;;2.49;65.96;99883.84;6286146;20;2882547;-43
2022/03/05 06:46:03;;;;;;;;;56.33;41.00;;;;;2.58;64.86;99883.59;6315245;20;3641872;-45
2022/03/05 06:48:33;;;;;;;;;59.50;46.00;;;;;2.46;65.38;99878.63;6315791;20;2861262;-44
2022/03/05 06:51:01;;;;;;;;;60.00;46.00;;;;;2.30;65.83;99884.31;6284731;20;2866970;-43
2022/03/05 06:53:29;;;;;;;;;61.00;47.00;;;;;2.50;66.27;99890.88;6281455;20;2496094;-44
2022/03/05 06:55:58;;;;;;;;;58.50;46.00;;;;;2.83;65.19;99890.00;6285398;20;2854523;-43
2022/03/05 06:58:27;;;;;;;;;63.50;47.00;;;;;2.57;65.37;99893.34;6284153;20;2876355;-44
2022/03/05 07:00:56;;;;;;;;;70.00;54.50;;;;;2.53;65.15;99891.69;6285436;20;2870122;-43
2022/03/05 07:03:26;;;;;;;;;70.67;52.00;;;;;2.64;65.77;99894.06;6286277;20;2882659;-43
2022/03/05 07:05:55;;;;;;;;;52.00;43.50;;;;;2.57;66.65;99897.78;6316061;20;2860708;-44
2022/03/05 07:08:24;;;;;;;;;54.00;41.67;;;;;2.54;67.27;99898.72;6283849;20;2866913;-45
2022/03/05 07:10:53;;;;;;;;;64.50;50.00;;;;;2.83;65.78;99897.09;6316353;20;2867968;-51
2022/03/05 07:13:22;;;;;;;;;68.00;48.00;;;;;2.93;65.94;99901.25;6285984;20;2885654;-46
2022/03/05 07:15:52;;;;;;;;;60.33;42.33;;;;;2.26;67.65;99902.97;6314125;20;3611801;-46
2022/03/05 07:18:22;;;;;;;;;100.33;74.00;;;;;2.94;66.13;99902.97;6314242;20;3669007;-46
2022/03/05 07:20:52;;;;;;;;;96.33;69.67;;;;;2.96;67.07;99902.94;6314068;20;3676357;-45
2022/03/05 07:23:20;;;;;;;;;60.00;45.00;;;;;3.04;66.60;99903.59;6280053;20;2508635;-45
2022/03/05 07:25:49;;;;;;;;;43.50;35.50;;;;;2.72;67.85;99904.47;6282503;20;2865483;-46
2022/03/05 07:28:18;;;;;;;;;35.50;30.00;;;;;2.48;69.50;99900.69;6284804;20;2855458;-43
2022/03/05 07:30:47;;;;;;;;;46.00;31.50;;;;;2.59;69.15;99906.56;6284978;20;2878438;-46
2022/03/05 07:33:16;;;;;;;;;36.50;30.50;;;;;2.80;68.82;99908.66;6285250;20;2845083;-45
2022/03/05 07:35:44;;;;;;;;;40.50;33.00;;;;;2.98;68.67;99909.09;6280912;20;2500251;-45
2022/03/05 07:38:13;;;;;;;;;39.00;34.00;;;;;2.89;69.45;99912.84;6281657;20;2852442;-45
2022/03/05 07:40:41;;;;;;;;;40.00;33.50;;;;;2.60;69.27;99903.00;6279750;20;2500254;-44
2022/03/05 07:43:09;;;;;;;;;40.50;37.00;;;;;3.07;68.37;99911.47;6280961;20;2500291;-44
2022/03/05 07:45:39;;;;;;;;;57.00;38.67;;;;;2.90;68.49;99905.75;6283749;20;2877329;-44
2022/03/05 07:48:09;;;;;;;;;41.67;38.33;;;;;3.01;68.56;99909.88;6315723;20;3614836;-46
2022/03/05 07:50:38;;;;;;;;;47.00;37.33;;;;;2.97;68.78;99907.34;6313484;20;3620039;-44
2022/03/05 07:53:08;;;;;;;;;47.33;37.67;;;;;3.00;68.65;99917.84;6311811;20;2870242;-44
2022/03/05 07:55:38;;;;;;;;;55.33;42.67;;;;;3.12;68.50;99920.19;6313466;20;3606515;-44
2022/03/05 07:58:06;;;;;;;;;36.50;33.50;;;;;3.72;67.84;99921.13;6308840;20;2500403;-44
2022/03/05 08:00:35;;;;;;;;;29.67;25.67;;;;;3.60;66.75;99921.50;6280432;20;3572529;-44
2022/03/05 08:03:04;;;;;;;;;78.33;58.33;;;;;3.74;66.57;99930.78;6312755;20;3633551;-46
2022/03/05 08:05:33;;;;;;;;;42.00;32.00;;;;;3.59;66.47;99927.72;6315032;20;2873192;-46
2022/03/05 08:08:02;;;;;;;;;43.50;36.50;;;;;3.43;66.41;99925.50;6283287;20;2863871;-44
2022/03/05 08:10:32;;;;;;;;;46.33;39.33;;;;;3.85;66.02;99929.59;6282084;20;2877388;-45
2022/03/05 08:13:00;;;;;;;;;38.50;34.00;;;;;3.41;66.68;99929.13;6307431;20;2500281;-44
2022/03/05 08:15:29;;;;;;;;;70.67;56.67;;;;;3.87;65.64;99931.31;6284084;20;2872172;-44
2022/03/05 08:18:01;;;;;;;;;102.67;95.00;;;;;4.05;64.72;99921.88;6309457;20;3671113;-44
2022/03/05 08:20:32;;;;;;;;;40.00;33.00;;;;;4.05;64.68;99921.88;6277691;20;2861840;-44
2022/03/05 08:23:01;;;;;;;;;30.00;26.50;;;;;3.98;64.75;99925.66;6283451;20;2852353;-43
2022/03/05 08:25:31;;;;;;;;;81.33;60.00;;;;;4.33;64.30;99934.31;6281828;20;2899306;-46
2022/03/05 08:27:59;;;;;;;;;69.50;55.00;;;;;4.54;63.87;99933.59;6314924;20;2863866;-45
2022/03/05 08:30:29;;;;;;;;;54.00;43.50;;;;;5.19;62.19;99924.28;6279573;20;2855542;-45
2022/03/05 08:32:58;;;;;;;;;49.00;37.67;;;;;5.43;61.70;99932.31;6282935;20;3621112;-44
2022/03/05 08:35:28;;;;;;;;;51.33;41.67;;;;;5.14;61.90;99928.91;6313683;20;2870384;-46
2022/03/05 08:38:03;;;;;;;;;52.67;42.33;;;;;4.65;62.66;99932.38;6315595;20;3628791;-44
2022/03/05 08:40:33;;;;;;;;;33.50;29.50;;;;;4.60;62.75;99935.19;6311244;20;2855487;-42
2022/03/05 08:43:02;;;;;;;;;50.00;41.50;;;;;5.71;60.62;99934.81;6283211;20;2846098;-43
2022/03/05 08:45:31;;;;;;;;;43.00;38.50;;;;;5.42;60.30;99936.75;6281908;20;2858674;-46
2022/03/05 08:48:01;;;;;;;;;48.33;37.67;;;;;5.66;60.33;99928.78;6281537;20;2864829;-42
2022/03/05 08:50:29;;;;;;;;;85.50;67.50;;;;;6.22;58.52;99933.78;6307148;20;2502339;-43
2022/03/05 08:52:58;;;;;;;;;62.33;46.00;;;;;5.71;59.68;99930.38;6282653;20;3618025;-44
2022/03/05 08:55:28;;;;;;;;;95.00;75.33;;;;;5.64;60.17;99928.00;6314859;20;3665898;-43
2022/03/05 08:57:57;;;;;;;;;53.00;44.00;;;;;6.40;57.22;99933.94;6285025;20;2870107;-45
2022/03/05 09:00:27;;;;;;;;;42.00;37.00;;;;;6.38;57.09;99931.34;6282635;20;2868138;-43
2022/03/05 09:02:56;;;;;;;;;28.00;24.50;;;;;6.17;57.39;99924.22;6317183;20;2847147;-44
2022/03/05 09:05:26;;;;;;;;;41.33;36.00;;;;;6.02;57.80;99920.34;6283454;20;2872242;-43
2022/03/05 09:07:55;;;;;;;;;34.00;29.00;;;;;6.23;57.44;99924.81;6320743;20;3589827;-46
2022/03/05 09:10:23;;;;;;;;;40.00;36.50;;;;;6.86;55.83;99924.03;6312451;20;2846092;-44
2022/03/05 09:12:52;;;;;;;;;31.00;29.50;;;;;6.31;53.94;99928.06;6286297;20;2848155;-44
2022/03/05 09:15:21;;;;;;;;;34.50;22.00;;;;;6.26;52.88;99919.38;6286086;20;2852373;-44
2022/03/05 09:17:50;;;;;;;;;43.50;41.00;;;;;5.19;53.69;99915.44;6283022;20;2864825;-43
2022/03/05 09:20:20;;;;;;;;;28.50;25.00;;;;;6.56;53.94;99917.28;6283774;20;2853410;-43
2022/03/05 09:22:49;;;;;;;;;24.00;24.00;;;;;6.50;52.17;99920.19;6283691;20;2845051;-45
2022/03/05 09:25:19;;;;;;;;;50.33;41.67;;;;;6.98;52.02;99921.72;6282407;20;2867132;-46
2022/03/05 09:27:47;;;;;;;;;22.33;18.67;;;;;6.69;51.50;99922.97;6314422;20;3567327;-42
2022/03/05 09:30:17;;;;;;;;;36.67;31.33;;;;;6.52;50.63;99920.13;6312792;20;2858662;-44
2022/03/05 09:32:46;;;;;;;;;31.00;23.00;;;;;6.46;50.59;99921.25;6314323;20;2854445;-42
2022/03/05 09:35:15;;;;;;;;;27.50;27.50;;;;;7.47;49.70;99916.00;6284450;20;2844113;-45
2022/03/05 09:37:44;;;;;;;;;34.00;30.50;;;;;7.24;49.27;99925.94;6283035;20;2858585;-42
2022/03/05 09:40:13;;;;;;;;;24.33;15.33;;;;;7.08;49.98;99922.16;6284076;20;3548130;-43
2022/03/05 09:42:44;;;;;;;;;32.50;27.00;;;;;7.34;48.75;99921.03;6314718;20;2845060;-43
2022/03/05 09:45:15;;;;;;;;;34.50;29.00;;;;;6.50;50.43;99917.53;6282536;20;2846168;-44
2022/03/05 09:47:45;;;;;;;;;31.00;29.50;;;;;6.63;49.86;99917.84;6280306;20;2500237;-45
2022/03/05 09:50:14;;;;;;;;;36.33;32.33;;;;;7.18;48.98;99928.84;6280621;20;2858604;-42
2022/03/05 09:52:43;;;;;;;;;39.50;30.50;;;;;6.68;49.23;99912.34;6310749;20;2852401;-43
2022/03/05 09:55:12;;;;;;;;;40.50;37.00;;;;;6.79;48.94;99924.31;6284183;20;2858576;-43
2022/03/05 09:57:41;;;;;;;;;30.00;27.50;;;;;7.67;47.59;99917.78;6282962;20;2862729;-42
2022/03/05 10:00:11;;;;;;;;;89.33;71.33;;;;;7.66;48.47;99916.94;6282590;20;3670013;-46
2022/03/05 10:02:40;;;;;;;;;25.00;23.00;;;;;6.74;49.28;99920.97;6312763;20;2491940;-45
2022/03/05 10:05:19;;;;;;;;;69.00;55.00;;;;;7.01;48.79;99915.38;6286048;20;3623289;-46
2022/03/05 10:08:15;;;;;;;;;60.00;46.00;;;;;7.10;48.60;99922.97;6313184;20;2875388;-47
2022/03/05 10:11:01;;;;;;;;;29.50;25.00;;;;;6.89;48.29;99918.56;6313161;20;2852320;-50
2022/03/05 10:13:34;;;;;;;;;62.67;48.00;;;;;7.12;47.25;99922.94;6298002;20;3617984;-45
2022/03/05 10:16:24;;;;;;;;;28.00;19.00;;;;;6.72;47.35;99919.31;6281645;20;2842991;-45
2022/03/05 10:18:54;;;;;;;;;21.00;14.50;;;;;5.72;50.12;99910.78;6286326;20;2815235;-47
2022/03/05 10:21:32;;;;;;;;;20.00;16.33;;;;;6.33;50.13;99915.53;6285783;20;3567919;-47
2022/03/05 10:24:09;;;;;;;;;63.67;49.33;;;;;6.01;50.25;99910.63;6281992;20;2882744;-45
2022/03/05 10:26:57;;;;;;;;;35.00;27.50;;;;;6.42;49.95;99911.63;6311582;20;2852321;-49
2022/03/05 10:29:34;;;;;;;;;27.00;20.00;;;;;6.86;48.38;99910.69;6279538;20;2500256;-46
2022/03/05 10:32:09;;;;;;;;;46.50;39.00;;;;;7.37;46.96;99904.00;6282369;20;2873175;-45
2022/03/05 10:34:49;;;;;;;;;29.50;23.00;;;;;7.14;46.45;99911.25;6281097;20;2848314;-47
2022/03/05 10:37:20;;;;;;;;;27.00;20.00;;;;;7.07;45.48;99915.09;6280591;20;2498219;-46
2022/03/05 10:39:51;;;;;;;;;36.50;32.50;;;;;7.70;43.61;99907.81;6283255;20;2862792;-47
2022/03/05 10:42:29;;;;;;;;;41.50;36.50;;;;;8.68;41.31;99918.28;6281350;20;2861748;-47
2022/03/05 10:45:18;;;;;;;;;28.50;23.50;;;;;8.40;41.51;99908.13;6283159;20;2829542;-47
2022/03/05 10:47:48;;;;;;;;;6.25;4.75;;;;;8.03;41.10;99904.50;6301625;20;1824940;-47
2022/03/05 10:50:15;;;;;;;;;14.00;8.00;;;;;7.43;42.41;99906.41;6308914;20;2765236;-46
2022/03/05 10:53:00;;;;;;;;;12.00;9.50;;;;;7.18;42.90;99915.50;6277126;20;2761813;-46
2022/03/05 10:55:37;;;;;;;;;12.00;11.80;;;;;6.78;42.44;99909.22;6306812;20;2791964;-53
2022/03/05 10:58:16;;;;;;;;;7.75;4.25;;;;;6.59;42.83;99905.59;6303790;20;1812784;-47
2022/03/05 11:00:49;;;;;;;;;16.20;12.20;;;;;6.25;43.52;99906.13;6341303;20;2805497;-50
2022/03/05 11:03:18;;;;;;;;;15.00;15.00;;;;;6.69;43.74;99906.97;6286607;20;2807553;-50
2022/03/05 11:05:47;;;;;;;;;13.67;11.33;;;;;6.57;44.27;99902.97;6287728;20;2791996;-50
2022/03/05 11:08:17;;;;;;;;;26.50;21.50;;;;;7.24;43.10;99903.66;6318202;20;2836971;-44
2022/03/05 11:10:49;;;;;;;;;17.00;16.00;;;;;7.77;41.69;99903.06;6287925;20;2822118;-46
2022/03/05 11:13:17;;;;;;;;;11.00;8.00;;;;;7.59;41.97;99899.44;6289305;20;2756578;-46
2022/03/05 11:15:45;;;;;;;;;22.67;22.67;;;;;7.99;41.37;99892.22;6292555;20;1834655;-47
2022/03/05 11:18:13;;;;;;;;;20.00;16.50;;;;;6.80;42.26;99894.03;6287998;20;2810658;-46
2022/03/05 11:20:45;;;;;;;;;9.00;7.00;;;;;6.61;42.90;99893.06;6287529;20;2745040;-45
2022/03/05 11:23:17;;;;;;;;;13.40;13.40;;;;;6.67;42.72;99895.47;6341814;20;2814873;-42